Ashland, WI

7:16 PM CDT on August 03, 2015 (GMT -0500)
Kennedy Memorial | | Change Station
CLOSE
Current Station
Airport
Location: Ashland,
Elevation: 823 ft
Nearby Weather Stations

Elev 823 ft 46.55 °N, 90.92 °W | Updated 23 minutes ago

Overcast
Overcast
69 °F
Feels Like 69 °F
N
9
Wind Variable Wind from West

Today
High -- | Low -- °F
--% Chance of Precip.
Yesterday
High -- | Low -- °F
Precip. -- in
5:46 AM 8:32 PM
Waning Gibbous, 83% visible
Pressure 29.85 in
Visibility 10.0 miles
Clouds Overcast 7500 ft
Dew Point 54 °F
Humidity 58%
Rainfall 0.00 in
Snow Depth Not available.
UV 0 out of 12
Pollen 5.60 out of 12
Air Quality Not available.
Flu Activity Not available.
METAR KASX 032353Z AUTO 28008KT 10SM OVC075 21/12 A2985 RMK AO2 SLP107 T02060122 10228 20200 53002

More Conditions Fewer Conditions

Pressure 29.85 in
Visibility 10.0 miles
Clouds Overcast 7500 ft
Dew Point 54 °F
Humidity 58%
Rainfall 0.00 in
Snow Depth Not available.
UV 0 out of 12
Pollen 5.60 out of 12
Air Quality Not available.
Flu Activity Not available.
METAR KASX 032353Z AUTO 28008KT 10SM OVC075 21/12 A2985 RMK AO2 SLP107 T02060122 10228 20200 53002

More Conditions Fewer Conditions

10-Day Weather Forecast

×

Almanac

Astronomy

Aug. 03, 2015 Rise Set
Actual Time
Civil Twilight
Nautical Twilight
Astronomical Twilight
Moon
Length of Visible Light
Length of Day
Tomorrow will be .
, % of the Moon is Illuminated

Today's Extremes

State Highs State Lows

Community

WunderPhotos

Upload Photos

1,843,788 photos uploaded!

WunderBlogs® & News

Nearby

Air Quality

  Air Quality AQ Index Pollutant
Not available.

Snow Depth

Station Depth Elevation

Earthquake Activity

City Distance Mag. Time & Date
Minimum magnitude displayed is 2.5.

Coastal Water Temperatures

Place Temperature

Stations

Nearby Weather Stations

Station Location Temp. Windchill Dew Point Humidity Wind Precip. Elev Updated Type